Time;durP1;ratioP1;P1;durP2;ratioP2;P2;SDS_P1;SDS_P2;PMS_P1;PMS_P2;Temp;Humidity;BMP_temperature;BMP_pressure;BME280_temperature;BME280_humidity;BME280_pressure;Samples;Min_cycle;Max_cycle;Signal;HPM_P1;HPM_P2
2021/07/29 00:00:59;;;;;;;1.70;1.60;;;25.00;56.30;;;;;;5098325;28;20189;-72
2021/07/29 00:03:30;;;;;;;1.57;1.47;;;25.00;56.20;;;;;;5101164;28;20531;-72
2021/07/29 00:05:59;;;;;;;1.63;1.53;;;25.00;56.20;;;;;;5106315;28;20196;-72
2021/07/29 00:08:31;;;;;;;1.47;1.37;;;25.10;56.30;;;;;;5104100;28;20205;-72
2021/07/29 00:10:59;;;;;;;1.37;1.27;;;25.10;56.30;;;;;;5097493;28;20201;-72
2021/07/29 00:13:29;;;;;;;1.43;1.33;;;25.00;56.20;;;;;;5101641;28;20648;-72
2021/07/29 00:16:02;;;;;;;1.47;1.37;;;25.00;56.80;;;;;;5088802;28;20281;-72
2021/07/29 00:21:21;;;;;;;1.43;1.33;;;25.00;56.20;;;;;;5105325;28;20707;-72
2021/07/29 00:23:51;;;;;;;1.50;1.40;;;25.00;56.30;;;;;;5120759;28;20241;-72
2021/07/29 00:26:23;;;;;;;1.50;1.40;;;25.00;56.30;;;;;;5103268;28;20239;-72
2021/07/29 00:28:55;;;;;;;1.17;1.03;;;25.00;56.30;;;;;;5095997;28;20189;-72
2021/07/29 00:31:33;;;;;;;1.40;1.30;;;25.00;56.30;;;;;;5105252;28;20215;-72
2021/07/29 00:34:05;;;;;;;1.10;1.07;;;25.00;56.30;;;;;;5104933;28;20547;-72
2021/07/29 00:36:35;;;;;;;1.50;1.40;;;25.00;56.30;;;;;;5099421;28;20660;-72
2021/07/29 00:39:07;;;;;;;1.40;1.30;;;25.00;56.30;;;;;;5089987;28;20607;-72
2021/07/29 00:42:04;;;;;;;1.50;1.40;;;25.00;56.30;;;;;;5097316;28;20209;-72
2021/07/29 00:44:34;;;;;;;1.50;1.40;;;25.00;56.30;;;;;;5103179;28;20197;-72
2021/07/29 00:47:07;;;;;;;1.23;0.90;;;25.00;56.30;;;;;;5092661;28;20292;-72
2021/07/29 00:49:37;;;;;;;1.50;1.40;;;25.00;56.30;;;;;;5092025;28;20201;-72
2021/07/29 00:52:08;;;;;;;1.40;1.20;;;25.00;56.30;;;;;;5093219;28;20553;-72
2021/07/29 00:54:37;;;;;;;1.20;1.10;;;25.00;56.30;;;;;;5105570;28;20188;-72
2021/07/29 00:57:11;;;;;;;1.30;1.20;;;25.00;56.40;;;;;;5098138;28;20206;-72
2021/07/29 00:59:40;;;;;;;1.30;1.20;;;25.00;56.40;;;;;;5089152;28;20223;-72
2021/07/29 01:02:07;;;;;;;1.77;1.20;;;24.90;56.30;;;;;;5110494;28;20197;-72
2021/07/29 01:04:37;;;;;;;1.30;1.20;;;25.00;56.40;;;;;;5092505;28;20539;-72
2021/07/29 01:07:07;;;;;;;1.70;1.60;;;24.90;56.30;;;;;;5107526;28;20189;-72
2021/07/29 01:09:51;;;;;;;1.50;1.40;;;24.90;56.30;;;;;;5099233;28;20197;-72
2021/07/29 01:12:22;;;;;;;1.53;1.10;;;24.90;56.30;;;;;;5109880;28;20199;-72
2021/07/29 01:14:52;;;;;;;1.40;1.30;;;24.90;57.00;;;;;;5099436;28;20242;-72
2021/07/29 01:17:22;;;;;;;1.33;1.23;;;24.90;56.30;;;;;;5111393;28;20224;-72
2021/07/29 01:19:54;;;;;;;1.40;1.30;;;24.90;56.30;;;;;;5100188;28;20216;-72
2021/07/29 01:22:32;;;;;;;1.50;1.40;;;24.90;56.40;;;;;;5106514;28;20197;-72
2021/07/29 01:24:59;;;;;;;1.40;1.30;;;24.90;56.90;;;;;;5079734;28;20608;-72
2021/07/29 01:27:33;;;;;;;1.50;1.40;;;24.90;56.60;;;;;;5099984;28;20207;-72
2021/07/29 01:30:05;;;;;;;1.30;1.20;;;24.90;56.30;;;;;;5104773;28;20211;-72
2021/07/29 01:32:38;;;;;;;1.20;1.10;;;24.90;56.40;;;;;;5106711;28;20192;-72
2021/07/29 01:35:10;;;;;;;1.30;1.20;;;24.90;56.40;;;;;;5101026;28;20197;-72
2021/07/29 01:37:43;;;;;;;1.30;1.20;;;24.90;56.40;;;;;;5103010;28;20231;-72
2021/07/29 01:40:14;;;;;;;1.07;1.00;;;24.90;56.30;;;;;;5108237;28;20700;-72
2021/07/29 01:42:43;;;;;;;1.30;1.20;;;24.90;56.40;;;;;;5098746;28;20205;-72
2021/07/29 01:45:12;;;;;;;1.43;1.33;;;24.90;56.30;;;;;;5098387;28;20249;-72
2021/07/29 01:47:40;;;;;;;1.60;1.40;;;24.90;56.40;;;;;;5097994;28;20641;-72
2021/07/29 01:50:11;;;;;;;1.73;1.30;;;24.90;56.30;;;;;;5097507;28;20235;-72
2021/07/29 01:52:41;;;;;;;1.30;1.20;;;24.80;56.30;;;;;;5102353;28;20222;-72
2021/07/29 01:55:09;;;;;;;1.70;1.50;;;24.90;56.40;;;;;;5102042;28;20211;-72
2021/07/29 01:57:39;;;;;;;1.53;1.43;;;24.80;56.30;;;;;;5101141;28;20192;-72
2021/07/29 02:00:11;;;;;;;1.30;1.20;;;24.80;56.30;;;;;;5106689;28;20872;-72
2021/07/29 02:02:42;;;;;;;1.20;1.10;;;24.90;56.40;;;;;;5100569;28;20204;-72
2021/07/29 02:05:14;;;;;;;1.20;1.10;;;24.80;56.30;;;;;;5107897;28;20207;-72
2021/07/29 02:07:46;;;;;;;1.40;1.30;;;24.90;56.40;;;;;;5105232;28;20207;-72
2021/07/29 02:10:15;;;;;;;1.30;1.20;;;24.80;56.30;;;;;;5102807;28;20213;-72
2021/07/29 02:12:49;;;;;;;1.17;1.07;;;24.80;56.40;;;;;;5093945;28;20201;-72
2021/07/29 02:15:22;;;;;;;1.07;0.93;;;24.80;56.40;;;;;;5100442;28;20196;-72
2021/07/29 02:17:57;;;;;;;1.30;1.20;;;24.80;56.40;;;;;;5099628;28;20213;-72
2021/07/29 02:20:28;;;;;;;1.80;1.10;;;24.80;56.30;;;;;;5101199;28;20220;-72
2021/07/29 02:22:57;;;;;;;2.17;1.33;;;24.80;56.30;;;;;;5106624;28;20208;-72
2021/07/29 02:25:41;;;;;;;1.40;1.30;;;24.80;56.30;;;;;;5099893;28;20200;-72
2021/07/29 02:28:11;;;;;;;1.20;1.10;;;24.80;56.40;;;;;;5107607;28;20201;-72
2021/07/29 02:30:46;;;;;;;1.50;1.23;;;24.80;56.40;;;;;;5095303;28;20260;-72
2021/07/29 02:33:14;;;;;;;1.37;1.27;;;24.80;56.30;;;;;;5101855;28;20225;-72
2021/07/29 02:35:53;;;;;;;1.17;1.07;;;24.80;56.40;;;;;;5100982;28;20204;-72
2021/07/29 02:38:19;;;;;;;1.20;1.10;;;24.70;56.30;;;;;;5104370;28;20232;-72
2021/07/29 02:40:47;;;;;;;1.30;1.20;;;24.80;56.40;;;;;;5091113;28;20604;-72
2021/07/29 02:43:18;;;;;;;1.20;1.10;;;24.70;56.30;;;;;;5099964;28;20200;-72
2021/07/29 02:45:47;;;;;;;1.30;1.20;;;24.70;56.30;;;;;;5100538;28;20517;-72
2021/07/29 02:48:15;;;;;;;1.10;1.00;;;24.70;56.30;;;;;;5100516;28;20217;-72
2021/07/29 02:50:54;;;;;;;1.30;1.20;;;24.70;56.30;;;;;;5103110;28;20192;-72
2021/07/29 02:53:25;;;;;;;1.30;1.20;;;24.70;56.30;;;;;;5104062;28;20222;-72
2021/07/29 02:55:58;;;;;;;1.20;1.10;;;24.70;56.40;;;;;;5097113;28;20200;-72
2021/07/29 02:58:30;;;;;;;1.20;1.03;;;24.70;56.30;;;;;;5083502;28;20193;-72
2021/07/29 03:01:02;;;;;;;1.23;1.13;;;24.70;56.30;;;;;;5089353;28;20223;-72
2021/07/29 03:03:34;;;;;;;1.40;1.30;;;24.70;56.30;;;;;;5102018;28;20246;-72
2021/07/29 03:06:05;;;;;;;1.00;1.00;;;24.70;56.40;;;;;;5096973;28;21237;-72
2021/07/29 03:08:37;;;;;;;1.33;1.20;;;24.70;56.40;;;;;;5097803;28;20196;-72
2021/07/29 03:11:11;;;;;;;1.30;1.20;;;24.70;56.40;;;;;;5104280;28;20632;-72
2021/07/29 03:13:39;;;;;;;2.73;1.30;;;24.70;56.30;;;;;;5099364;28;20188;-72
2021/07/29 03:16:08;;;;;;;1.53;1.30;;;24.70;56.30;;;;;;5106435;28;20207;-72
2021/07/29 03:18:36;;;;;;;1.17;1.10;;;24.70;56.30;;;;;;5105116;28;20602;-72
2021/07/29 03:21:07;;;;;;;1.03;0.93;;;24.70;56.40;;;;;;5102387;28;20213;-72
2021/07/29 03:23:39;;;;;;;1.10;1.10;;;24.60;56.30;;;;;;5077684;28;20666;-72
2021/07/29 03:26:11;;;;;;;1.20;1.10;;;24.70;56.30;;;;;;5103648;28;20203;-72
2021/07/29 03:28:43;;;;;;;0.93;0.93;;;24.70;56.40;;;;;;5106983;28;20606;-72
2021/07/29 03:31:12;;;;;;;1.10;1.00;;;24.70;56.40;;;;;;5098441;28;20315;-72
2021/07/29 03:33:43;;;;;;;1.37;1.27;;;24.70;56.40;;;;;;5092780;28;20215;-72
2021/07/29 03:36:12;;;;;;;1.67;1.20;;;24.70;56.40;;;;;;5097835;28;20219;-72
2021/07/29 03:38:41;;;;;;;1.00;1.00;;;24.60;56.40;;;;;;5106183;28;20677;-72
2021/07/29 03:41:26;;;;;;;1.47;1.20;;;24.60;56.40;;;;;;5097008;28;20196;-72
2021/07/29 03:43:57;;;;;;;1.20;1.10;;;24.60;56.40;;;;;;5104462;28;20200;-73
2021/07/29 03:46:29;;;;;;;1.10;1.00;;;24.60;56.40;;;;;;5103669;28;20613;-72
2021/07/29 03:49:03;;;;;;;1.30;1.20;;;24.60;56.40;;;;;;5106697;28;20237;-72
2021/07/29 03:51:36;;;;;;;1.20;1.10;;;24.60;56.40;;;;;;5089064;28;20188;-72
2021/07/29 03:54:04;;;;;;;1.20;1.10;;;24.60;56.40;;;;;;5097699;28;20209;-72
2021/07/29 03:56:32;;;;;;;1.07;1.00;;;24.60;56.40;;;;;;5108513;28;20196;-72
2021/07/29 03:59:04;;;;;;;1.20;1.10;;;24.60;56.30;;;;;;5100952;28;20204;-72
2021/07/29 04:01:34;;;;;;;1.53;1.37;;;24.60;56.30;;;;;;5103461;28;20193;-72
2021/07/29 04:04:03;;;;;;;1.57;1.40;;;24.60;56.30;;;;;;5083419;28;20622;-72
2021/07/29 04:06:36;;;;;;;1.17;1.07;;;24.60;56.40;;;;;;5098972;28;20193;-72
2021/07/29 04:09:08;;;;;;;1.13;1.03;;;24.60;56.40;;;;;;5104196;28;20231;-72
2021/07/29 04:11:44;;;;;;;1.47;1.13;;;24.60;56.30;;;;;;5099838;28;20641;-71
2021/07/29 04:14:15;;;;;;;1.40;1.20;;;24.60;56.30;;;;;;5101378;28;20224;-71
2021/07/29 04:16:47;;;;;;;1.37;1.27;;;24.60;56.30;;;;;;5106619;28;20202;-70
2021/07/29 04:19:18;;;;;;;1.40;1.30;;;24.60;56.30;;;;;;5104718;28;20196;-70
2021/07/29 04:21:48;;;;;;;1.40;1.30;;;24.60;56.30;;;;;;5103015;28;20211;-70
2021/07/29 04:24:23;;;;;;;2.43;1.47;;;24.60;56.30;;;;;;5100964;28;20196;-70
2021/07/29 04:27:05;;;;;;;1.20;1.10;;;24.60;56.20;;;;;;5102416;28;20204;-71
2021/07/29 04:29:35;;;;;;;1.10;1.00;;;24.60;56.20;;;;;;5106589;28;20199;-71
2021/07/29 04:32:06;;;;;;;1.20;1.10;;;24.50;56.20;;;;;;5105118;28;20196;-72
2021/07/29 04:34:39;;;;;;;1.50;1.13;;;24.50;56.10;;;;;;5110674;28;20680;-72
2021/07/29 04:37:10;;;;;;;1.43;1.23;;;24.50;56.10;;;;;;5103709;28;20206;-71
2021/07/29 04:39:42;;;;;;;1.63;1.37;;;24.50;56.10;;;;;;5100905;28;20670;-71
2021/07/29 04:42:33;;;;;;;1.10;1.00;;;24.60;56.10;;;;;;5109421;28;20180;-72
2021/07/29 04:45:00;;;;;;;1.90;1.23;;;24.50;56.10;;;;;;5107411;28;20197;-72
2021/07/29 04:47:31;;;;;;;1.50;1.20;;;24.50;56.10;;;;;;5104286;28;20192;-72
2021/07/29 04:50:05;;;;;;;1.43;1.03;;;24.50;56.00;;;;;;5106439;28;20283;-71
2021/07/29 04:52:36;;;;;;;2.00;1.13;;;24.40;56.00;;;;;;5106355;28;20347;-72
2021/07/29 04:55:10;;;;;;;1.10;1.00;;;24.50;56.00;;;;;;5103907;28;20646;-71
2021/07/29 04:57:42;;;;;;;1.43;1.20;;;24.50;56.00;;;;;;5102961;28;20199;-70
2021/07/29 05:00:12;;;;;;;1.67;1.20;;;24.50;55.90;;;;;;5104657;28;20218;-71
2021/07/29 05:02:43;;;;;;;1.23;1.07;;;24.40;55.90;;;;;;5099594;28;20542;-71
2021/07/29 05:05:16;;;;;;;0.90;0.90;;;24.40;55.90;;;;;;5105008;28;20204;-72
2021/07/29 05:07:44;;;;;;;1.03;0.93;;;24.50;55.90;;;;;;5098141;28;20192;-72
2021/07/29 05:10:13;;;;;;;2.13;1.13;;;24.50;56.00;;;;;;5097388;28;20228;-71
2021/07/29 05:12:43;;;;;;;2.00;1.20;;;24.40;55.90;;;;;;5103300;28;20233;-70
2021/07/29 05:15:13;;;;;;;1.70;1.40;;;24.40;55.90;;;;;;5105827;28;20693;-70
2021/07/29 05:17:45;;;;;;;1.93;1.13;;;24.50;55.90;;;;;;5106322;28;20204;-70
2021/07/29 05:20:19;;;;;;;2.07;1.20;;;24.50;55.90;;;;;;5095763;28;20819;-72
2021/07/29 05:22:49;;;;;;;1.50;1.10;;;24.40;55.80;;;;;;5104559;28;20888;-72
2021/07/29 05:25:23;;;;;;;1.30;0.90;;;24.50;56.00;;;;;;5093577;28;20197;-72
2021/07/29 05:27:56;;;;;;;1.10;1.00;;;24.40;55.80;;;;;;5103757;28;20299;-72
2021/07/29 05:30:27;;;;;;;1.73;1.07;;;24.40;55.80;;;;;;5107376;28;20196;-71
2021/07/29 05:33:00;;;;;;;1.20;1.07;;;24.40;55.80;;;;;;5102076;28;20204;-72
2021/07/29 05:35:33;;;;;;;1.20;1.10;;;24.40;55.70;;;;;;5109768;28;20559;-71
2021/07/29 05:38:04;;;;;;;1.50;1.23;;;24.40;55.70;;;;;;5105574;28;20216;-71
2021/07/29 05:40:39;;;;;;;1.73;1.23;;;24.40;55.70;;;;;;5110823;28;20234;-71
2021/07/29 05:43:09;;;;;;;2.90;1.20;;;24.40;55.60;;;;;;5099669;28;20191;-72
2021/07/29 05:45:41;;;;;;;1.40;1.30;;;24.40;55.70;;;;;;5096574;28;20302;-72
2021/07/29 05:48:13;;;;;;;1.50;1.20;;;24.40;55.60;;;;;;5104017;28;20521;-72
2021/07/29 05:50:47;;;;;;;1.70;1.23;;;24.40;55.70;;;;;;5108899;28;20213;-72
2021/07/29 05:53:18;;;;;;;1.87;1.23;;;24.40;55.60;;;;;;5103753;28;20819;-72
2021/07/29 05:55:52;;;;;;;1.70;1.20;;;24.40;55.60;;;;;;5101964;28;20227;-72
2021/07/29 05:58:23;;;;;;;1.93;1.03;;;24.40;55.60;;;;;;5102175;28;20193;-72
2021/07/29 06:00:56;;;;;;;3.83;1.40;;;24.40;55.70;;;;;;5105762;28;20739;-72
2021/07/29 06:03:28;;;;;;;1.97;1.30;;;24.40;55.60;;;;;;5098074;28;20747;-72
2021/07/29 06:05:59;;;;;;;2.17;1.30;;;24.40;55.60;;;;;;5099094;28;20192;-72
2021/07/29 06:08:29;;;;;;;1.00;0.90;;;24.40;55.60;;;;;;5108787;28;20200;-72
2021/07/29 06:11:06;;;;;;;1.20;1.10;;;24.40;55.60;;;;;;5105436;28;20270;-72
2021/07/29 06:13:47;;;;;;;1.40;1.17;;;24.40;55.50;;;;;;5108362;28;20610;-72
2021/07/29 06:16:18;;;;;;;1.13;1.00;;;24.40;55.60;;;;;;5104731;28;20192;-72
2021/07/29 06:19:04;;;;;;;1.57;1.07;;;24.40;55.60;;;;;;5109687;28;20532;-72
2021/07/29 06:21:33;;;;;;;1.43;1.10;;;24.40;55.60;;;;;;5097673;28;20209;-70
2021/07/29 06:24:04;;;;;;;1.27;1.17;;;24.40;55.50;;;;;;5099716;28;20228;-71
2021/07/29 06:26:34;;;;;;;1.83;1.30;;;24.40;55.50;;;;;;5106142;28;20222;-71
2021/07/29 06:29:04;;;;;;;1.40;1.00;;;24.40;55.60;;;;;;5101197;28;20197;-71
2021/07/29 06:31:36;;;;;;;1.43;1.33;;;24.40;55.50;;;;;;5096848;28;20688;-71
2021/07/29 06:34:05;;;;;;;2.60;1.50;;;24.40;55.50;;;;;;5100997;28;20555;-71
2021/07/29 06:36:33;;;;;;;2.63;1.60;;;24.40;55.50;;;;;;5109817;28;20665;-71
2021/07/29 06:39:09;;;;;;;1.30;1.20;;;24.40;55.50;;;;;;5097614;28;20304;-71
2021/07/29 06:41:39;;;;;;;1.50;1.00;;;24.40;55.50;;;;;;5107411;28;20273;-71
2021/07/29 06:44:08;;;;;;;2.20;1.27;;;24.40;55.50;;;;;;5104011;28;20196;-72
2021/07/29 06:46:42;;;;;;;3.30;1.30;;;24.40;55.50;;;;;;5107453;28;20216;-71
2021/07/29 06:49:15;;;;;;;1.97;1.30;;;24.40;55.50;;;;;;5103843;28;20200;-70
2021/07/29 06:51:45;;;;;;;3.27;1.07;;;24.40;55.50;;;;;;5107346;28;20200;-71
2021/07/29 06:54:17;;;;;;;2.43;1.10;;;24.40;55.40;;;;;;5101142;28;20718;-71
2021/07/29 06:56:48;;;;;;;2.63;1.60;;;24.40;55.40;;;;;;5102648;28;20581;-71
2021/07/29 06:59:17;;;;;;;1.63;1.20;;;24.40;55.40;;;;;;5101589;28;20196;-71
2021/07/29 07:01:47;;;;;;;3.20;1.23;;;24.40;55.40;;;;;;5106238;28;20212;-71
2021/07/29 07:04:16;;;;;;;2.20;1.10;;;24.40;55.40;;;;;;5105430;28;20211;-71
2021/07/29 07:06:48;;;;;;;2.80;1.30;;;24.30;55.30;;;;;;5103415;28;20188;-72
2021/07/29 07:09:18;;;;;;;1.70;1.20;;;24.40;55.40;;;;;;5096540;28;20193;-73
2021/07/29 07:11:52;;;;;;;2.27;1.30;;;24.40;55.40;;;;;;5102092;28;20211;-72
2021/07/29 07:14:20;;;;;;;1.60;1.10;;;24.40;55.40;;;;;;5096226;28;20200;-72
2021/07/29 07:16:47;;;;;;;1.70;1.20;;;24.40;55.40;;;;;;5098821;28;20209;-72
2021/07/29 07:19:16;;;;;;;1.50;1.30;;;24.40;55.30;;;;;;5109313;28;20210;-72
2021/07/29 07:21:47;;;;;;;2.27;1.20;;;24.40;55.30;;;;;;5100146;28;20208;-72
2021/07/29 07:24:18;;;;;;;2.17;1.30;;;24.40;55.30;;;;;;5104103;28;20235;-72
2021/07/29 07:26:48;;;;;;;2.07;1.30;;;24.40;55.30;;;;;;5099244;28;20648;-72
2021/07/29 07:29:19;;;;;;;2.50;1.13;;;24.40;55.30;;;;;;5095730;28;20744;-72
2021/07/29 07:31:50;;;;;;;2.00;1.27;;;24.40;55.30;;;;;;5099637;28;20211;-72
2021/07/29 07:34:22;;;;;;;2.23;1.00;;;24.40;55.30;;;;;;5103072;28;20654;-72
2021/07/29 07:36:55;;;;;;;2.67;1.20;;;24.40;55.30;;;;;;5105062;28;20554;-71
2021/07/29 07:39:24;;;;;;;1.63;1.20;;;24.40;55.30;;;;;;5087392;28;20701;-71
2021/07/29 07:41:56;;;;;;;3.00;1.63;;;24.40;55.20;;;;;;5105915;28;20212;-71
2021/07/29 07:44:24;;;;;;;3.03;1.37;;;24.40;55.20;;;;;;5103669;28;20196;-71
2021/07/29 07:46:55;;;;;;;1.90;1.30;;;24.40;55.20;;;;;;5088776;28;20274;-72
2021/07/29 07:49:25;;;;;;;2.67;1.50;;;24.40;55.30;;;;;;5101196;28;20228;-72
2021/07/29 07:51:59;;;;;;;2.63;1.30;;;24.40;55.20;;;;;;5104715;28;20227;-72
2021/07/29 07:54:28;;;;;;;2.27;1.23;;;24.40;55.10;;;;;;5100486;28;20197;-72
2021/07/29 07:57:07;;;;;;;1.57;1.23;;;24.40;55.20;;;;;;5093106;28;20200;-72
2021/07/29 07:59:50;;;;;;;2.33;1.57;;;24.40;55.20;;;;;;5100850;28;20279;-72
2021/07/29 08:02:23;;;;;;;2.47;1.30;;;24.40;55.20;;;;;;5105195;28;20216;-72
2021/07/29 08:04:52;;;;;;;2.73;1.33;;;24.40;55.10;;;;;;5100519;28;20193;-72
2021/07/29 08:07:24;;;;;;;1.83;1.37;;;24.40;55.20;;;;;;5104945;28;20188;-71
2021/07/29 08:09:56;;;;;;;3.00;1.70;;;24.40;55.20;;;;;;5110564;28;20245;-70
2021/07/29 08:12:27;;;;;;;2.23;1.40;;;24.40;55.20;;;;;;5103037;28;20242;-71
2021/07/29 08:14:59;;;;;;;3.70;1.70;;;24.40;55.10;;;;;;5111538;28;20265;-71
2021/07/29 08:17:28;;;;;;;3.07;1.37;;;24.40;55.20;;;;;;5107700;28;20204;-72
2021/07/29 08:20:04;;;;;;;3.77;1.63;;;24.40;55.10;;;;;;5096611;28;20675;-72
2021/07/29 08:22:34;;;;;;;2.30;1.37;;;24.50;55.20;;;;;;5102807;28;20215;-72
2021/07/29 08:25:08;;;;;;;2.43;1.30;;;24.40;55.10;;;;;;5110338;28;20202;-72
2021/07/29 08:27:38;;;;;;;2.87;1.50;;;24.50;55.10;;;;;;5102256;28;20207;-72
2021/07/29 08:30:10;;;;;;;3.43;1.27;;;24.40;55.10;;;;;;5109593;28;20196;-72
2021/07/29 08:32:42;;;;;;;4.30;1.50;;;24.40;55.10;;;;;;5108310;28;20197;-71
2021/07/29 08:35:16;;;;;;;3.10;1.23;;;24.40;55.00;;;;;;5093959;28;20295;-71
2021/07/29 08:37:52;;;;;;;1.97;1.50;;;24.40;55.00;;;;;;5108008;28;20200;-71
2021/07/29 08:40:22;;;;;;;3.47;1.60;;;24.40;55.10;;;;;;5108053;28;20337;-71
2021/07/29 08:42:54;;;;;;;2.70;1.67;;;24.40;55.00;;;;;;5104899;28;20200;-71
2021/07/29 08:45:31;;;;;;;3.20;1.60;;;24.40;55.00;;;;;;5103054;28;20204;-73
2021/07/29 08:48:06;;;;;;;1.97;1.43;;;24.40;54.90;;;;;;5109916;28;20222;-72
2021/07/29 08:51:00;;;;;;;3.13;1.67;;;24.40;55.00;;;;;;5097448;28;20776;-72
2021/07/29 08:53:44;;;;;;;3.43;1.47;;;24.40;55.00;;;;;;5108661;28;20286;-72
2021/07/29 08:56:14;;;;;;;2.77;1.47;;;24.40;54.90;;;;;;5098582;28;20205;-71
2021/07/29 08:58:54;;;;;;;2.37;1.70;;;24.40;55.60;;;;;;5084533;28;20215;-70
2021/07/29 09:01:48;;;;;;;2.43;1.20;;;24.50;54.90;;;;;;5101330;28;20214;-70
2021/07/29 09:04:19;;;;;;;3.33;1.80;;;24.50;54.90;;;;;;5104565;28;20589;-71
2021/07/29 09:06:58;;;;;;;4.00;1.50;;;24.50;55.10;;;;;;5106993;28;20207;-71
2021/07/29 09:09:46;;;;;;;3.60;1.70;;;24.40;54.80;;;;;;5104488;28;20212;-71
2021/07/29 09:12:19;;;;;;;2.37;1.40;;;24.50;54.80;;;;;;5106320;28;20209;-71
2021/07/29 09:14:57;;;;;;;3.00;1.67;;;24.50;54.80;;;;;;5102064;28;20333;-70
2021/07/29 09:17:26;;;;;;;1.93;1.30;;;24.50;54.90;;;;;;5109530;28;20539;-71
2021/07/29 09:19:56;;;;;;;2.03;1.40;;;24.50;54.80;;;;;;5091029;28;20211;-71
2021/07/29 09:22:30;;;;;;;1.57;1.30;;;24.50;54.80;;;;;;5099184;28;20533;-71
2021/07/29 09:25:26;;;;;;;1.87;1.50;;;24.50;54.80;;;;;;5099051;28;20539;-71
2021/07/29 09:27:54;;;;;;;2.40;1.33;;;24.60;54.70;;;;;;5103619;27;20578;-71
2021/07/29 09:30:32;;;;;;;1.80;1.37;;;24.50;54.70;;;;;;5108544;28;20196;-71
2021/07/29 09:33:17;;;;;;;3.60;1.77;;;24.60;54.80;;;;;;5098888;28;20205;-72
2021/07/29 09:35:53;;;;;;;3.03;1.50;;;24.60;54.60;;;;;;5110751;28;20228;-71
2021/07/29 09:38:31;;;;;;;2.50;1.67;;;24.60;54.60;;;;;;5103837;28;20607;-71
2021/07/29 09:41:06;;;;;;;2.57;1.67;;;24.60;54.60;;;;;;5106239;27;20578;-71
2021/07/29 09:43:39;;;;;;;3.90;1.63;;;24.60;54.60;;;;;;5092267;28;20211;-71
2021/07/29 09:46:22;;;;;;;2.50;1.67;;;24.60;54.60;;;;;;5102201;28;20200;-72
2021/07/29 09:48:55;;;;;;;3.50;1.77;;;24.60;54.60;;;;;;5100088;28;20199;-72
2021/07/29 09:51:25;;;;;;;3.77;1.60;;;24.60;54.50;;;;;;5108555;28;20228;-72
2021/07/29 09:53:57;;;;;;;1.80;1.33;;;24.60;54.60;;;;;;5109955;28;20224;-72
2021/07/29 09:56:27;;;;;;;3.07;1.87;;;24.60;54.50;;;;;;5102256;28;20200;-71
2021/07/29 09:59:20;;;;;;;3.57;1.70;;;24.60;54.50;;;;;;5106146;28;20228;-71
2021/07/29 10:01:50;;;;;;;2.97;1.53;;;24.60;54.50;;;;;;5105905;28;20660;-71
2021/07/29 10:04:27;;;;;;;3.07;1.67;;;24.60;54.50;;;;;;5105125;28;20767;-71
2021/07/29 10:07:27;;;;;;;2.00;1.40;;;24.60;54.50;;;;;;5098750;28;20196;-72
2021/07/29 10:09:59;;;;;;;4.13;1.67;;;24.60;54.50;;;;;;5100754;28;20204;-72
2021/07/29 10:12:32;;;;;;;3.03;1.67;;;24.60;54.50;;;;;;5108728;28;20192;-73
2021/07/29 10:15:05;;;;;;;2.87;1.50;;;24.60;54.50;;;;;;5105157;28;20203;-72
2021/07/29 10:17:45;;;;;;;2.47;1.60;;;24.60;54.50;;;;;;5108249;28;20265;-72
2021/07/29 10:20:23;;;;;;;2.37;1.50;;;24.70;54.50;;;;;;5100630;28;20774;-71
2021/07/29 10:23:15;;;;;;;2.63;1.33;;;24.70;54.50;;;;;;5096913;28;20223;-71
2021/07/29 10:26:03;;;;;;;2.27;1.30;;;24.60;54.40;;;;;;5102105;28;20268;-71
2021/07/29 10:28:39;;;;;;;2.40;1.50;;;24.60;54.50;;;;;;5101836;28;20219;-71
2021/07/29 10:31:10;;;;;;;2.43;1.50;;;24.70;54.60;;;;;;5100181;28;20231;-71
2021/07/29 10:33:42;;;;;;;1.90;1.40;;;24.60;54.50;;;;;;5103536;28;20219;-72
2021/07/29 10:36:50;;;;;;;3.10;1.50;;;24.70;54.50;;;;;;5107622;28;20208;-71
2021/07/29 10:39:32;;;;;;;1.80;1.30;;;24.70;54.60;;;;;;5048243;28;20237;-71
2021/07/29 10:42:03;;;;;;;2.30;1.50;;;24.70;54.60;;;;;;5058662;28;20317;-71
2021/07/29 10:44:38;;;;;;;2.37;1.50;;;24.70;54.60;;;;;;5061616;28;20226;-71
2021/07/29 10:47:14;;;;;;;2.57;1.30;;;24.70;54.50;;;;;;5063814;28;20221;-71
2021/07/29 10:50:00;;;;;;;3.03;1.60;;;24.70;54.50;;;;;;5050304;28;20608;-71
2021/07/29 10:52:30;;;;;;;2.00;1.30;;;24.70;54.50;;;;;;5059374;28;20198;-70
2021/07/29 10:55:09;;;;;;;2.27;1.60;;;24.70;54.60;;;;;;5066478;28;20198;-72
2021/07/29 10:57:55;;;;;;;2.40;1.43;;;24.70;54.50;;;;;;5061264;28;20216;-71
2021/07/29 11:00:24;;;;;;;2.83;1.57;;;24.70;54.60;;;;;;5064571;28;20624;-72
2021/07/29 11:02:52;;;;;;;2.10;1.50;;;24.70;54.50;;;;;;5059683;28;20217;-72
2021/07/29 11:05:39;;;;;;;2.50;1.67;;;24.80;54.50;;;;;;5065619;28;20190;-72
2021/07/29 11:08:12;;;;;;;2.40;1.37;;;24.70;54.40;;;;;;5059028;28;20771;-72
2021/07/29 11:10:45;;;;;;;2.33;1.37;;;24.70;54.40;;;;;;5062177;28;20205;-72
2021/07/29 11:13:16;;;;;;;2.40;1.60;;;24.70;54.40;;;;;;5061217;28;20259;-72
2021/07/29 11:15:46;;;;;;;2.60;1.40;;;24.80;54.40;;;;;;5061003;28;20532;-71
2021/07/29 11:18:19;;;;;;;1.70;1.37;;;24.70;54.40;;;;;;5065976;28;20537;-71
2021/07/29 11:20:49;;;;;;;2.17;1.57;;;24.80;54.40;;;;;;5059616;28;20222;-71
2021/07/29 11:23:36;;;;;;;2.53;1.40;;;24.80;54.50;;;;;;5066358;28;20795;-71
2021/07/29 11:26:08;;;;;;;2.17;1.23;;;24.80;54.40;;;;;;5059602;28;20201;-70
2021/07/29 11:28:43;;;;;;;1.70;1.20;;;24.80;54.40;;;;;;5054296;28;20790;-71
2021/07/29 11:31:19;;;;;;;2.50;1.57;;;24.80;54.40;;;;;;5050323;28;20263;-72
2021/07/29 11:33:52;;;;;;;2.27;1.50;;;24.80;54.30;;;;;;5062217;28;20209;-72
2021/07/29 11:36:21;;;;;;;2.33;1.37;;;24.80;54.30;;;;;;5060784;28;20190;-71
2021/07/29 11:39:00;;;;;;;2.23;1.50;;;24.80;54.40;;;;;;5076747;28;20240;-71
2021/07/29 11:41:30;;;;;;;3.10;1.77;;;24.90;54.50;;;;;;5077451;28;20221;-71
2021/07/29 11:44:03;;;;;;;2.03;1.53;;;24.90;54.40;;;;;;5098537;28;20192;-71
2021/07/29 11:47:00;;;;;;;3.33;1.70;;;24.80;54.90;;;;;;5103261;28;20256;-72
2021/07/29 11:49:46;;;;;;;1.53;1.40;;;24.90;54.40;;;;;;5096617;28;20215;-71
2021/07/29 11:52:20;;;;;;;2.67;1.43;;;24.80;54.40;;;;;;5100169;28;20215;-71
2021/07/29 11:55:10;;;;;;;2.60;1.47;;;24.80;54.30;;;;;;5097953;28;20353;-72
2021/07/29 11:57:47;;;;;;;2.97;1.90;;;24.90;54.30;;;;;;5101823;28;20196;-71
2021/07/29 12:00:28;;;;;;;2.97;1.60;;;24.90;54.40;;;;;;5098084;28;20194;-70
2021/07/29 12:03:00;;;;;;;4.73;2.13;;;24.90;54.40;;;;;;5100534;28;20231;-70
2021/07/29 12:05:36;;;;;;;1.80;1.50;;;24.90;54.40;;;;;;5095027;28;20179;-71
2021/07/29 12:08:14;;;;;;;3.07;1.43;;;24.90;54.30;;;;;;5097483;28;20589;-71
2021/07/29 12:10:58;;;;;;;3.13;1.83;;;24.90;54.40;;;;;;5108306;28;20853;-71
2021/07/29 12:13:28;;;;;;;2.43;1.47;;;24.90;54.30;;;;;;5082031;28;20241;-71
2021/07/29 12:16:04;;;;;;;2.73;1.53;;;24.90;54.30;;;;;;5089526;28;20204;-71
2021/07/29 12:18:34;;;;;;;2.53;1.60;;;24.90;54.30;;;;;;5097870;28;20196;-71
2021/07/29 12:21:05;;;;;;;3.00;1.47;;;24.90;54.40;;;;;;5076053;28;20235;-71
2021/07/29 12:23:57;;;;;;;3.53;1.30;;;24.90;54.30;;;;;;5102415;28;20564;-71
2021/07/29 12:26:28;;;;;;;2.07;1.47;;;24.90;54.40;;;;;;5099399;28;20205;-71
2021/07/29 12:28:57;;;;;;;2.00;1.40;;;24.90;54.30;;;;;;5107351;28;20653;-71
2021/07/29 12:31:31;;;;;;;2.97;1.50;;;24.90;54.20;;;;;;5103569;28;21156;-71
2021/07/29 12:34:10;;;;;;;1.50;1.20;;;25.00;54.20;;;;;;5084714;28;20207;-71
2021/07/29 12:36:49;;;;;;;2.97;1.80;;;25.00;54.20;;;;;;5098900;28;20742;-71
2021/07/29 12:39:33;;;;;;;3.70;1.63;;;25.00;54.10;;;;;;5106676;28;20225;-71
2021/07/29 12:42:23;;;;;;;2.50;1.33;;;25.00;54.10;;;;;;5101980;28;20666;-71
2021/07/29 12:45:05;;;;;;;3.27;1.70;;;25.00;54.00;;;;;;5100908;28;20200;-71
2021/07/29 12:47:38;;;;;;;2.13;1.47;;;25.00;53.90;;;;;;5123762;28;20197;-70
2021/07/29 12:50:39;;;;;;;2.97;1.70;;;25.00;53.90;;;;;;5108643;28;20673;-70
2021/07/29 12:53:25;;;;;;;2.80;1.60;;;25.00;54.00;;;;;;5111973;28;20212;-71
2021/07/29 12:55:55;;;;;;;3.40;1.80;;;25.00;54.00;;;;;;5121300;28;20649;-72
2021/07/29 12:58:40;;;;;;;2.77;1.50;;;25.00;53.90;;;;;;5091490;28;20205;-72
2021/07/29 13:01:19;;;;;;;2.07;1.20;;;25.00;53.80;;;;;;5100389;28;20198;-71
2021/07/29 13:03:51;;;;;;;2.07;1.47;;;25.00;53.80;;;;;;5101590;28;20228;-71
2021/07/29 13:06:24;;;;;;;2.37;1.37;;;25.00;53.80;;;;;;5094520;28;20193;-72
2021/07/29 13:08:56;;;;;;;2.13;1.33;;;25.00;53.80;;;;;;5104902;27;20261;-72
2021/07/29 13:11:28;;;;;;;1.57;1.33;;;25.10;53.80;;;;;;5093834;28;20544;-71
2021/07/29 13:14:01;;;;;;;1.87;1.40;;;25.10;53.80;;;;;;5105466;28;20201;-71
2021/07/29 13:16:33;;;;;;;3.77;1.70;;;25.10;53.90;;;;;;5103381;28;20854;-71
2021/07/29 13:19:04;;;;;;;1.63;1.33;;;25.10;53.80;;;;;;5098345;28;20258;-71
2021/07/29 13:21:35;;;;;;;2.43;1.80;;;25.10;53.90;;;;;;5118516;27;20197;-71
2021/07/29 13:24:03;;;;;;;2.20;1.40;;;25.10;53.80;;;;;;5088607;28;20197;-72